sensor_id;sensor_type;location;lat;lon;timestamp;P1;durP1;ratioP1;P2;durP2;ratioP2
52642;SDS011;38531;53.296;6.614;2022-10-04T00:06:45;3.28;;;0.82;;
52642;SDS011;38531;53.296;6.614;2022-10-04T00:09:24;1.48;;;0.70;;
52642;SDS011;38531;53.296;6.614;2022-10-04T00:11:57;3.22;;;0.80;;
52642;SDS011;38531;53.296;6.614;2022-10-04T00:14:27;1.83;;;0.70;;
52642;SDS011;38531;53.296;6.614;2022-10-04T00:16:55;2.25;;;0.70;;
52642;SDS011;38531;53.296;6.614;2022-10-04T00:19:37;1.95;;;0.77;;
52642;SDS011;38531;53.296;6.614;2022-10-04T00:24:35;2.03;;;0.70;;
52642;SDS011;38531;53.296;6.614;2022-10-04T00:56:38;3.30;;;0.82;;
52642;SDS011;38531;53.296;6.614;2022-10-04T01:01:46;1.08;;;0.75;;
52642;SDS011;38531;53.296;6.614;2022-10-04T01:04:38;3.10;;;1.00;;
52642;SDS011;38531;53.296;6.614;2022-10-04T01:07:07;1.58;;;0.80;;
52642;SDS011;38531;53.296;6.614;2022-10-04T01:09:36;4.30;;;0.70;;
52642;SDS011;38531;53.296;6.614;2022-10-04T01:12:13;1.40;;;0.70;;
52642;SDS011;38531;53.296;6.614;2022-10-04T01:15:05;1.98;;;1.00;;
52642;SDS011;38531;53.296;6.614;2022-10-04T01:17:31;2.25;;;1.13;;
52642;SDS011;38531;53.296;6.614;2022-10-04T01:19:57;4.15;;;1.15;;
52642;SDS011;38531;53.296;6.614;2022-10-04T01:22:39;2.15;;;0.80;;
52642;SDS011;38531;53.296;6.614;2022-10-04T01:25:06;3.53;;;0.93;;
52642;SDS011;38531;53.296;6.614;2022-10-04T01:27:34;1.30;;;0.70;;
52642;SDS011;38531;53.296;6.614;2022-10-04T01:30:08;8.60;;;1.48;;
52642;SDS011;38531;53.296;6.614;2022-10-04T01:32:36;3.78;;;0.90;;
52642;SDS011;38531;53.296;6.614;2022-10-04T01:35:04;2.58;;;0.88;;
52642;SDS011;38531;53.296;6.614;2022-10-04T01:37:32;2.28;;;0.90;;
52642;SDS011;38531;53.296;6.614;2022-10-04T01:39:58;11.93;;;1.33;;
52642;SDS011;38531;53.296;6.614;2022-10-04T01:42:31;2.38;;;1.25;;
52642;SDS011;38531;53.296;6.614;2022-10-04T01:47:54;4.43;;;1.73;;
52642;SDS011;38531;53.296;6.614;2022-10-04T01:53:10;2.30;;;1.02;;
52642;SDS011;38531;53.296;6.614;2022-10-04T01:56:11;6.03;;;1.30;;
52642;SDS011;38531;53.296;6.614;2022-10-04T01:58:51;6.55;;;1.88;;
52642;SDS011;38531;53.296;6.614;2022-10-04T02:01:31;5.72;;;1.30;;
52642;SDS011;38531;53.296;6.614;2022-10-04T02:03:59;5.00;;;1.60;;
52642;SDS011;38531;53.296;6.614;2022-10-04T02:06:26;4.38;;;1.40;;
52642;SDS011;38531;53.296;6.614;2022-10-04T02:08:54;4.15;;;1.70;;
52642;SDS011;38531;53.296;6.614;2022-10-04T02:11:21;5.55;;;1.70;;
52642;SDS011;38531;53.296;6.614;2022-10-04T02:13:52;8.88;;;1.65;;
52642;SDS011;38531;53.296;6.614;2022-10-04T02:16:19;6.03;;;2.08;;
52642;SDS011;38531;53.296;6.614;2022-10-04T02:18:46;5.60;;;1.80;;
52642;SDS011;38531;53.296;6.614;2022-10-04T02:21:15;4.45;;;1.65;;
52642;SDS011;38531;53.296;6.614;2022-10-04T02:23:43;7.13;;;1.90;;
52642;SDS011;38531;53.296;6.614;2022-10-04T02:26:10;2.88;;;1.02;;
52642;SDS011;38531;53.296;6.614;2022-10-04T02:28:36;1.85;;;1.00;;
52642;SDS011;38531;53.296;6.614;2022-10-04T02:31:03;2.28;;;0.90;;
52642;SDS011;38531;53.296;6.614;2022-10-04T02:36:15;2.83;;;1.00;;
52642;SDS011;38531;53.296;6.614;2022-10-04T02:38:47;3.53;;;1.08;;
52642;SDS011;38531;53.296;6.614;2022-10-04T02:54:57;5.13;;;1.27;;
52642;SDS011;38531;53.296;6.614;2022-10-04T02:57:39;6.07;;;1.52;;
52642;SDS011;38531;53.296;6.614;2022-10-04T03:00:16;5.70;;;1.40;;
52642;SDS011;38531;53.296;6.614;2022-10-04T03:05:34;2.97;;;1.30;;
52642;SDS011;38531;53.296;6.614;2022-10-04T03:08:03;2.33;;;1.13;;
52642;SDS011;38531;53.296;6.614;2022-10-04T03:10:29;4.30;;;2.38;;
52642;SDS011;38531;53.296;6.614;2022-10-04T03:12:55;4.65;;;1.45;;
52642;SDS011;38531;53.296;6.614;2022-10-04T03:15:21;2.13;;;1.33;;
52642;SDS011;38531;53.296;6.614;2022-10-04T03:17:47;3.80;;;1.67;;
52642;SDS011;38531;53.296;6.614;2022-10-04T03:20:14;1.95;;;0.93;;
52642;SDS011;38531;53.296;6.614;2022-10-04T03:22:45;3.72;;;1.30;;
52642;SDS011;38531;53.296;6.614;2022-10-04T03:25:16;2.53;;;1.10;;
52642;SDS011;38531;53.296;6.614;2022-10-04T03:27:46;3.58;;;1.17;;
52642;SDS011;38531;53.296;6.614;2022-10-04T03:30:13;4.30;;;1.33;;
52642;SDS011;38531;53.296;6.614;2022-10-04T03:32:40;2.05;;;0.90;;
52642;SDS011;38531;53.296;6.614;2022-10-04T03:35:16;3.10;;;1.17;;
52642;SDS011;38531;53.296;6.614;2022-10-04T03:37:56;3.78;;;1.00;;
52642;SDS011;38531;53.296;6.614;2022-10-04T03:40:24;3.83;;;1.58;;
52642;SDS011;38531;53.296;6.614;2022-10-04T03:42:53;1.83;;;1.10;;
52642;SDS011;38531;53.296;6.614;2022-10-04T03:45:19;4.32;;;1.30;;
52642;SDS011;38531;53.296;6.614;2022-10-04T03:47:48;2.05;;;1.20;;
52642;SDS011;38531;53.296;6.614;2022-10-04T03:50:17;2.58;;;1.38;;
52642;SDS011;38531;53.296;6.614;2022-10-04T03:52:52;3.28;;;1.52;;
52642;SDS011;38531;53.296;6.614;2022-10-04T03:55:23;4.28;;;1.20;;
52642;SDS011;38531;53.296;6.614;2022-10-04T03:57:57;2.65;;;1.23;;
52642;SDS011;38531;53.296;6.614;2022-10-04T04:00:24;3.70;;;1.38;;
52642;SDS011;38531;53.296;6.614;2022-10-04T04:02:55;1.63;;;0.93;;
52642;SDS011;38531;53.296;6.614;2022-10-04T04:10:52;4.95;;;1.40;;
52642;SDS011;38531;53.296;6.614;2022-10-04T04:13:24;2.65;;;1.30;;
52642;SDS011;38531;53.296;6.614;2022-10-04T04:15:53;1.98;;;1.10;;
52642;SDS011;38531;53.296;6.614;2022-10-04T04:18:23;6.32;;;1.40;;
52642;SDS011;38531;53.296;6.614;2022-10-04T04:20:54;3.05;;;1.50;;
52642;SDS011;38531;53.296;6.614;2022-10-04T04:23:27;3.78;;;1.33;;
52642;SDS011;38531;53.296;6.614;2022-10-04T04:26:42;4.32;;;1.60;;
52642;SDS011;38531;53.296;6.614;2022-10-04T04:31:50;2.20;;;1.35;;
52642;SDS011;38531;53.296;6.614;2022-10-04T04:34:32;3.15;;;1.33;;
52642;SDS011;38531;53.296;6.614;2022-10-04T04:37:08;1.90;;;1.30;;
52642;SDS011;38531;53.296;6.614;2022-10-04T04:39:34;2.90;;;1.83;;
52642;SDS011;38531;53.296;6.614;2022-10-04T04:42:11;3.95;;;1.25;;
52642;SDS011;38531;53.296;6.614;2022-10-04T04:44:54;2.75;;;1.30;;
52642;SDS011;38531;53.296;6.614;2022-10-04T04:50:09;2.08;;;1.10;;
52642;SDS011;38531;53.296;6.614;2022-10-04T04:52:39;3.50;;;1.40;;
52642;SDS011;38531;53.296;6.614;2022-10-04T04:55:22;3.58;;;1.60;;
52642;SDS011;38531;53.296;6.614;2022-10-04T04:57:50;1.80;;;1.17;;
52642;SDS011;38531;53.296;6.614;2022-10-04T05:00:20;3.08;;;1.17;;
52642;SDS011;38531;53.296;6.614;2022-10-04T05:02:53;2.25;;;1.40;;
52642;SDS011;38531;53.296;6.614;2022-10-04T05:05:24;1.27;;;0.98;;
52642;SDS011;38531;53.296;6.614;2022-10-04T05:10:44;4.22;;;1.60;;
52642;SDS011;38531;53.296;6.614;2022-10-04T05:13:13;2.00;;;1.45;;
52642;SDS011;38531;53.296;6.614;2022-10-04T05:15:41;2.03;;;1.42;;
52642;SDS011;38531;53.296;6.614;2022-10-04T05:24:20;6.38;;;1.70;;
52642;SDS011;38531;53.296;6.614;2022-10-04T07:05:54;6.15;;;1.90;;
52642;SDS011;38531;53.296;6.614;2022-10-04T07:11:52;7.25;;;2.58;;
52642;SDS011;38531;53.296;6.614;2022-10-04T07:14:28;7.50;;;2.67;;
52642;SDS011;38531;53.296;6.614;2022-10-04T07:20:29;4.57;;;1.98;;
52642;SDS011;38531;53.296;6.614;2022-10-04T07:31:25;5.95;;;2.35;;
52642;SDS011;38531;53.296;6.614;2022-10-04T07:36:49;7.53;;;2.20;;
52642;SDS011;38531;53.296;6.614;2022-10-04T09:09:21;9.93;;;3.65;;
52642;SDS011;38531;53.296;6.614;2022-10-04T10:17:47;6.53;;;1.63;;
52642;SDS011;38531;53.296;6.614;2022-10-04T10:31:14;5.28;;;1.80;;
52642;SDS011;38531;53.296;6.614;2022-10-04T13:07:21;2.42;;;0.90;;
52642;SDS011;38531;53.296;6.614;2022-10-04T13:27:02;3.42;;;1.33;;
52642;SDS011;38531;53.296;6.614;2022-10-04T15:11:59;3.97;;;0.98;;
52642;SDS011;38531;53.296;6.614;2022-10-04T15:17:34;4.53;;;0.80;;
52642;SDS011;38531;53.296;6.614;2022-10-04T15:20:19;2.65;;;1.13;;
52642;SDS011;38531;53.296;6.614;2022-10-04T17:11:40;1.98;;;0.88;;
52642;SDS011;38531;53.296;6.614;2022-10-04T17:14:20;1.90;;;0.77;;
52642;SDS011;38531;53.296;6.614;2022-10-04T17:26:31;1.35;;;0.75;;
52642;SDS011;38531;53.296;6.614;2022-10-04T17:48:57;3.33;;;1.33;;
52642;SDS011;38531;53.296;6.614;2022-10-04T17:51:48;2.45;;;1.08;;
52642;SDS011;38531;53.296;6.614;2022-10-04T18:11:01;2.42;;;1.30;;
52642;SDS011;38531;53.296;6.614;2022-10-04T18:13:35;5.18;;;1.98;;
52642;SDS011;38531;53.296;6.614;2022-10-04T18:16:15;3.72;;;1.30;;
52642;SDS011;38531;53.296;6.614;2022-10-04T18:18:48;3.35;;;1.17;;
52642;SDS011;38531;53.296;6.614;2022-10-04T18:21:22;3.28;;;1.88;;
52642;SDS011;38531;53.296;6.614;2022-10-04T18:23:55;2.35;;;1.23;;
52642;SDS011;38531;53.296;6.614;2022-10-04T18:26:31;3.08;;;1.25;;
52642;SDS011;38531;53.296;6.614;2022-10-04T18:28:58;2.13;;;1.27;;
52642;SDS011;38531;53.296;6.614;2022-10-04T18:31:29;2.95;;;1.17;;
52642;SDS011;38531;53.296;6.614;2022-10-04T18:34:18;5.65;;;1.63;;
52642;SDS011;38531;53.296;6.614;2022-10-04T18:36:55;4.93;;;1.73;;
52642;SDS011;38531;53.296;6.614;2022-10-04T18:39:22;6.20;;;1.58;;
52642;SDS011;38531;53.296;6.614;2022-10-04T18:44:57;2.78;;;1.80;;
52642;SDS011;38531;53.296;6.614;2022-10-04T18:47:44;3.38;;;1.20;;
52642;SDS011;38531;53.296;6.614;2022-10-04T19:06:50;7.72;;;2.58;;
52642;SDS011;38531;53.296;6.614;2022-10-04T19:09:45;4.72;;;2.13;;
52642;SDS011;38531;53.296;6.614;2022-10-04T19:12:43;7.15;;;2.42;;
52642;SDS011;38531;53.296;6.614;2022-10-04T19:17:54;4.93;;;1.98;;
52642;SDS011;38531;53.296;6.614;2022-10-04T19:20:35;6.38;;;1.77;;
52642;SDS011;38531;53.296;6.614;2022-10-04T19:28:52;4.40;;;1.77;;
52642;SDS011;38531;53.296;6.614;2022-10-04T19:31:33;4.70;;;1.70;;
52642;SDS011;38531;53.296;6.614;2022-10-04T19:34:17;4.07;;;1.77;;
52642;SDS011;38531;53.296;6.614;2022-10-04T19:37:07;7.47;;;1.98;;
52642;SDS011;38531;53.296;6.614;2022-10-04T19:39:51;4.20;;;2.20;;
52642;SDS011;38531;53.296;6.614;2022-10-04T19:42:29;5.72;;;2.00;;
52642;SDS011;38531;53.296;6.614;2022-10-04T19:47:51;5.13;;;1.85;;
52642;SDS011;38531;53.296;6.614;2022-10-04T19:50:22;6.35;;;2.35;;
52642;SDS011;38531;53.296;6.614;2022-10-04T19:52:58;4.82;;;1.73;;
52642;SDS011;38531;53.296;6.614;2022-10-04T20:00:53;5.80;;;1.98;;
52642;SDS011;38531;53.296;6.614;2022-10-04T20:03:19;5.10;;;1.90;;
52642;SDS011;38531;53.296;6.614;2022-10-04T20:05:46;7.00;;;2.25;;
52642;SDS011;38531;53.296;6.614;2022-10-04T20:08:14;5.15;;;2.28;;
52642;SDS011;38531;53.296;6.614;2022-10-04T20:11:20;5.78;;;2.20;;
52642;SDS011;38531;53.296;6.614;2022-10-04T20:21:44;4.22;;;2.42;;
52642;SDS011;38531;53.296;6.614;2022-10-04T20:32:08;5.00;;;1.98;;
52642;SDS011;38531;53.296;6.614;2022-10-04T20:37:03;4.28;;;2.65;;
52642;SDS011;38531;53.296;6.614;2022-10-04T20:45:20;4.10;;;1.85;;
52642;SDS011;38531;53.296;6.614;2022-10-04T20:47:46;3.53;;;1.50;;
52642;SDS011;38531;53.296;6.614;2022-10-04T20:50:16;6.25;;;2.33;;
52642;SDS011;38531;53.296;6.614;2022-10-04T20:53:01;6.30;;;2.30;;
52642;SDS011;38531;53.296;6.614;2022-10-04T20:55:43;4.47;;;2.38;;
52642;SDS011;38531;53.296;6.614;2022-10-04T20:58:31;5.28;;;1.70;;
52642;SDS011;38531;53.296;6.614;2022-10-04T21:01:17;3.53;;;2.00;;
52642;SDS011;38531;53.296;6.614;2022-10-04T21:04:19;7.00;;;2.08;;
52642;SDS011;38531;53.296;6.614;2022-10-04T21:07:27;3.97;;;2.00;;
52642;SDS011;38531;53.296;6.614;2022-10-04T21:09:56;3.65;;;2.10;;
52642;SDS011;38531;53.296;6.614;2022-10-04T21:15:03;6.03;;;1.88;;
52642;SDS011;38531;53.296;6.614;2022-10-04T21:17:35;3.25;;;1.65;;
52642;SDS011;38531;53.296;6.614;2022-10-04T21:20:01;4.05;;;1.67;;
52642;SDS011;38531;53.296;6.614;2022-10-04T21:30:00;3.03;;;1.50;;
52642;SDS011;38531;53.296;6.614;2022-10-04T21:32:31;5.13;;;3.28;;
52642;SDS011;38531;53.296;6.614;2022-10-04T21:34:58;5.47;;;2.20;;
52642;SDS011;38531;53.296;6.614;2022-10-04T21:37:24;4.45;;;1.98;;
52642;SDS011;38531;53.296;6.614;2022-10-04T21:39:50;5.20;;;2.15;;
52642;SDS011;38531;53.296;6.614;2022-10-04T21:42:16;5.65;;;2.25;;
52642;SDS011;38531;53.296;6.614;2022-10-04T21:44:42;3.50;;;2.00;;
52642;SDS011;38531;53.296;6.614;2022-10-04T21:47:08;7.40;;;2.15;;
52642;SDS011;38531;53.296;6.614;2022-10-04T21:49:34;4.00;;;1.70;;
52642;SDS011;38531;53.296;6.614;2022-10-04T21:52:00;2.28;;;1.20;;
52642;SDS011;38531;53.296;6.614;2022-10-04T21:54:26;6.50;;;1.88;;
52642;SDS011;38531;53.296;6.614;2022-10-04T21:56:52;6.57;;;2.45;;
52642;SDS011;38531;53.296;6.614;2022-10-04T21:59:18;4.03;;;1.83;;
52642;SDS011;38531;53.296;6.614;2022-10-04T22:01:44;4.40;;;2.10;;
52642;SDS011;38531;53.296;6.614;2022-10-04T22:04:10;4.15;;;2.63;;
52642;SDS011;38531;53.296;6.614;2022-10-04T22:06:36;6.00;;;2.60;;
52642;SDS011;38531;53.296;6.614;2022-10-04T22:09:02;4.78;;;1.92;;
52642;SDS011;38531;53.296;6.614;2022-10-04T22:11:28;3.25;;;1.98;;
52642;SDS011;38531;53.296;6.614;2022-10-04T22:13:54;5.25;;;2.10;;
52642;SDS011;38531;53.296;6.614;2022-10-04T22:16:19;5.93;;;2.58;;
52642;SDS011;38531;53.296;6.614;2022-10-04T22:18:45;6.45;;;2.35;;
52642;SDS011;38531;53.296;6.614;2022-10-04T22:21:11;5.47;;;2.88;;
52642;SDS011;38531;53.296;6.614;2022-10-04T22:23:40;3.92;;;2.30;;
52642;SDS011;38531;53.296;6.614;2022-10-04T22:26:08;4.95;;;2.30;;
52642;SDS011;38531;53.296;6.614;2022-10-04T22:28:36;5.38;;;2.33;;
52642;SDS011;38531;53.296;6.614;2022-10-04T22:31:10;3.83;;;2.15;;
52642;SDS011;38531;53.296;6.614;2022-10-04T22:33:37;4.53;;;2.13;;
52642;SDS011;38531;53.296;6.614;2022-10-04T22:36:16;4.57;;;2.28;;
52642;SDS011;38531;53.296;6.614;2022-10-04T22:38:55;4.35;;;2.22;;
52642;SDS011;38531;53.296;6.614;2022-10-04T22:41:34;4.00;;;2.03;;
52642;SDS011;38531;53.296;6.614;2022-10-04T22:46:54;4.75;;;2.17;;
52642;SDS011;38531;53.296;6.614;2022-10-04T22:49:23;7.38;;;2.20;;
52642;SDS011;38531;53.296;6.614;2022-10-04T22:51:57;4.57;;;2.30;;
52642;SDS011;38531;53.296;6.614;2022-10-04T22:54:25;4.78;;;1.95;;
52642;SDS011;38531;53.296;6.614;2022-10-04T22:56:58;4.07;;;2.50;;
52642;SDS011;38531;53.296;6.614;2022-10-04T22:59:38;5.45;;;2.13;;
52642;SDS011;38531;53.296;6.614;2022-10-04T23:02:15;4.88;;;2.92;;
52642;SDS011;38531;53.296;6.614;2022-10-04T23:05:32;4.47;;;2.20;;
52642;SDS011;38531;53.296;6.614;2022-10-04T23:07:43;6.85;;;2.72;;
52642;SDS011;38531;53.296;6.614;2022-10-04T23:10:10;7.10;;;3.20;;
52642;SDS011;38531;53.296;6.614;2022-10-04T23:12:38;6.47;;;2.70;;
52642;SDS011;38531;53.296;6.614;2022-10-04T23:15:05;4.32;;;2.33;;
52642;SDS011;38531;53.296;6.614;2022-10-04T23:17:35;6.28;;;2.20;;
52642;SDS011;38531;53.296;6.614;2022-10-04T23:20:11;5.88;;;2.83;;
52642;SDS011;38531;53.296;6.614;2022-10-04T23:22:38;3.45;;;2.30;;
52642;SDS011;38531;53.296;6.614;2022-10-04T23:25:11;5.32;;;2.63;;
52642;SDS011;38531;53.296;6.614;2022-10-04T23:27:40;5.45;;;2.75;;
52642;SDS011;38531;53.296;6.614;2022-10-04T23:30:08;5.65;;;2.05;;
52642;SDS011;38531;53.296;6.614;2022-10-04T23:32:39;5.15;;;2.58;;
52642;SDS011;38531;53.296;6.614;2022-10-04T23:35:15;5.15;;;2.05;;
52642;SDS011;38531;53.296;6.614;2022-10-04T23:37:50;7.57;;;3.25;;
52642;SDS011;38531;53.296;6.614;2022-10-04T23:40:18;6.28;;;3.70;;
52642;SDS011;38531;53.296;6.614;2022-10-04T23:42:46;8.60;;;3.17;;
52642;SDS011;38531;53.296;6.614;2022-10-04T23:45:24;3.55;;;2.25;;
52642;SDS011;38531;53.296;6.614;2022-10-04T23:50:24;5.50;;;3.08;;
52642;SDS011;38531;53.296;6.614;2022-10-04T23:52:53;8.07;;;2.42;;
52642;SDS011;38531;53.296;6.614;2022-10-04T23:55:27;10.55;;;4.18;;
52642;SDS011;38531;53.296;6.614;2022-10-04T23:57:58;7.53;;;3.45;;
